Time;durP1;ratioP1;P1;durP2;ratioP2;P2;SDS_P1;SDS_P2;PMS_P1;PMS_P2;Temp;Humidity;BMP_temperature;BMP_pressure;BME280_temperature;BME280_humidity;BME280_pressure;Samples;Min_cycle;Max_cycle;Signal;HPM_P1;HPM_P2
2022/01/17 00:00:21;;;;;;;47.58;27.33;;;;;;;4.25;93.22;101510.31;7399101;19;20025;-65
2022/01/17 00:02:51;;;;;;;45.58;26.00;;;;;;;4.24;93.31;101511.16;7399440;19;20011;-65
2022/01/17 00:05:19;;;;;;;47.08;26.75;;;;;;;4.23;93.43;101520.69;7398862;19;20045;-65
2022/01/17 00:07:48;;;;;;;43.60;25.42;;;;;;;4.22;93.17;101508.53;7396833;19;20019;-65
2022/01/17 00:10:16;;;;;;;47.30;27.23;;;;;;;4.24;93.21;101508.56;7397651;19;20044;-66
2022/01/17 00:12:47;;;;;;;49.35;26.20;;;;;;;4.26;93.62;101511.19;7398675;19;20018;-65
2022/01/17 00:15:21;;;;;;;48.80;26.67;;;;;;;4.26;93.18;101506.88;7399062;19;20019;-65
2022/01/17 00:18:07;;;;;;;44.85;26.42;;;;;;;4.27;93.42;101499.94;7396627;19;20033;-65
2022/01/17 00:20:35;;;;;;;45.72;24.33;;;;;;;4.27;93.52;101498.22;7398890;19;20025;-65
2022/01/17 00:23:04;;;;;;;44.58;25.80;;;;;;;4.26;93.12;101491.28;7397989;19;20480;-66
2022/01/17 00:25:32;;;;;;;41.88;23.95;;;;;;;4.29;93.17;101501.72;7398089;19;20018;-66
2022/01/17 00:28:00;;;;;;;44.85;26.20;;;;;;;4.32;92.88;101503.50;7396107;19;20022;-64
2022/01/17 00:30:29;;;;;;;44.42;23.90;;;;;;;4.33;92.57;101503.50;7396464;19;20014;-64
2022/01/17 00:32:59;;;;;;;41.15;23.70;;;;;;;4.35;92.30;101514.81;7397941;19;20014;-64
2022/01/17 00:35:27;;;;;;;39.22;22.35;;;;;;;4.38;91.96;101511.38;7397174;19;20014;-65
2022/01/17 00:37:56;;;;;;;38.90;23.02;;;;;;;4.42;91.92;101497.59;7395784;19;20040;-65
2022/01/17 00:40:25;;;;;;;39.58;24.42;;;;;;;4.44;91.81;101495.03;7397632;19;20039;-65
2022/01/17 00:42:54;;;;;;;37.88;22.70;;;;;;;4.46;91.18;101490.72;7397594;19;20014;-64
2022/01/17 00:45:31;;;;;;;38.50;22.17;;;;;;;4.48;91.11;101489.88;7397383;19;20018;-65
2022/01/17 00:48:02;;;;;;;38.17;22.20;;;;;;;4.50;90.65;101484.72;7395619;19;20044;-65
2022/01/17 00:50:31;;;;;;;38.03;21.83;;;;;;;4.52;90.66;101483.03;7395978;19;20490;-65
2022/01/17 00:53:02;;;;;;;35.17;19.60;;;;;;;4.53;89.56;101509.03;7397259;19;20018;-65
2022/01/17 00:55:31;;;;;;;39.10;20.48;;;;;;;4.58;89.37;101475.31;7397663;19;20021;-65
2022/01/17 00:57:59;;;;;;;31.25;18.90;;;;;;;4.62;88.68;101491.84;7395353;19;20015;-65
2022/01/17 01:00:28;;;;;;;31.88;19.48;;;;;;;4.65;89.38;101478.88;7397067;19;20378;-65
2022/01/17 01:02:56;;;;;;;29.50;17.13;;;;;;;4.65;88.39;101494.47;7396644;19;20408;-65
2022/01/17 01:05:27;;;;;;;32.08;17.38;;;;;;;4.68;88.70;101492.78;7396910;19;20042;-65
2022/01/17 01:07:56;;;;;;;28.58;16.40;;;;;;;4.69;87.79;101491.94;7395191;19;20018;-64
2022/01/17 01:10:24;;;;;;;27.63;16.90;;;;;;;4.62;88.11;101474.50;7395911;19;20078;-64
2022/01/17 01:12:53;;;;;;;26.70;16.77;;;;;;;4.72;87.80;101486.78;7396681;19;20040;-65
2022/01/17 01:15:34;;;;;;;25.42;15.88;;;;;;;4.73;88.00;101478.13;7396775;19;20018;-66
2022/01/17 01:18:13;;;;;;;30.60;15.93;;;;;;;4.76;87.69;101479.03;7394790;19;20022;-66
2022/01/17 01:21:14;;;;;;;28.70;15.57;;;;;;;4.76;87.50;101466.91;7396733;19;20011;-66
2022/01/17 01:29:05;;;;;;;25.38;15.30;;;;;;;4.79;86.95;101459.16;7396162;19;20011;-66
2022/01/17 01:31:42;;;;;;;26.05;14.70;;;;;;;4.81;86.62;101430.56;7393915;19;20349;-66
2022/01/17 01:34:11;;;;;;;23.77;14.68;;;;;;;4.82;87.15;101450.53;7396233;19;20071;-66
2022/01/17 01:36:42;;;;;;;25.33;14.52;;;;;;;4.83;87.25;101444.47;7395018;19;20014;-65
2022/01/17 01:39:12;;;;;;;23.98;13.52;;;;;;;4.83;86.03;101436.69;7395435;19;20479;-66
2022/01/17 01:41:43;;;;;;;28.38;13.68;;;;;;;4.84;86.67;101441.00;7395654;19;20010;-66
2022/01/17 01:44:15;;;;;;;23.08;12.77;;;;;;;4.84;85.93;101452.28;7396021;19;20014;-65
2022/01/17 01:46:43;;;;;;;22.70;13.25;;;;;;;4.86;86.04;101441.91;7394602;19;20023;-66
2022/01/17 01:49:12;;;;;;;18.95;12.25;;;;;;;4.86;85.04;101452.31;7393433;19;20040;-66
2022/01/17 01:51:44;;;;;;;20.33;11.73;;;;;;;4.87;84.82;101444.50;7393430;19;20515;-66
2022/01/17 01:54:13;;;;;;;16.98;10.90;;;;;;;4.88;84.48;101448.00;7395853;19;20341;-65
2022/01/17 01:56:44;;;;;;;18.42;11.02;;;;;;;4.92;85.74;101426.38;7394446;19;20018;-64
2022/01/17 01:59:14;;;;;;;19.85;10.70;;;;;;;4.93;84.62;101422.94;7395755;19;20032;-65
2022/01/17 02:01:42;;;;;;;18.50;10.48;;;;;;;4.93;84.10;101422.94;7395226;19;20033;-64
2022/01/17 02:04:10;;;;;;;18.50;10.82;;;;;;;4.94;84.07;101445.50;7395197;19;20033;-65
2022/01/17 02:06:38;;;;;;;15.48;10.35;;;;;;;4.96;84.10;101422.09;7394321;19;20018;-64
2022/01/17 02:09:09;;;;;;;18.63;10.35;;;;;;;4.96;83.13;101422.09;7394979;19;20033;-65
2022/01/17 02:11:38;;;;;;;15.32;10.15;;;;;;;5.00;84.33;101418.69;7395581;19;20011;-64
2022/01/17 02:14:07;;;;;;;16.00;9.68;;;;;;;5.00;83.73;101423.88;7399023;19;20014;-65
2022/01/17 02:16:38;;;;;;;19.13;10.32;;;;;;;5.00;84.05;101437.75;7395142;19;20022;-64
2022/01/17 02:19:06;;;;;;;21.50;10.52;;;;;;;4.97;84.12;101416.91;7394514;19;20113;-64
2022/01/17 02:21:45;;;;;;;17.67;10.50;;;;;;;5.01;84.17;101433.44;7394672;19;20011;-65
2022/01/17 02:24:16;;;;;;;19.35;10.27;;;;;;;5.01;83.63;101433.44;7395086;19;20021;-67
2022/01/17 02:26:45;;;;;;;17.42;9.70;;;;;;;5.02;83.64;101448.19;7394036;19;20043;-64
2022/01/17 02:29:14;;;;;;;14.32;8.40;;;;;;;4.99;83.28;101415.22;7394486;19;20048;-64
2022/01/17 02:31:43;;;;;;;17.55;9.10;;;;;;;5.04;84.24;101407.44;7391687;19;20014;-64
2022/01/17 02:34:12;;;;;;;17.27;9.45;;;;;;;5.03;83.22;101405.69;7394369;19;20147;-64
2022/01/17 02:36:43;;;;;;;18.90;9.60;;;;;;;5.03;82.99;101424.78;7393252;19;20111;-65
2022/01/17 02:39:11;;;;;;;19.27;9.32;;;;;;;5.04;83.05;101426.53;7393857;19;20479;-65
2022/01/17 02:41:48;;;;;;;16.13;8.70;;;;;;;5.05;83.88;101412.69;7393809;19;20501;-65
2022/01/17 02:44:17;;;;;;;15.60;9.40;;;;;;;5.05;83.19;101401.38;7394609;19;20015;-64
2022/01/17 02:46:45;;;;;;;17.10;9.18;;;;;;;5.04;83.22;101389.25;7393447;19;20011;-65
2022/01/17 02:49:13;;;;;;;23.77;10.23;;;;;;;5.02;82.89;101402.22;7393655;19;20479;-64
2022/01/17 02:51:48;;;;;;;14.38;8.45;;;;;;;5.03;83.29;101364.97;7392375;19;20040;-64
2022/01/17 02:54:16;;;;;;;13.70;8.43;;;;;;;5.01;82.63;101369.28;7393586;19;20479;-64
2022/01/17 02:56:44;;;;;;;16.15;7.68;;;;;;;5.02;82.16;101345.00;7392808;19;20025;-64
2022/01/17 02:59:12;;;;;;;13.07;6.13;;;;;;;5.02;80.98;101359.75;7396038;19;20036;-64
2022/01/17 03:01:41;;;;;;;10.65;5.53;;;;;;;5.03;80.27;101357.16;7401310;19;20014;-64
2022/01/17 03:04:09;;;;;;;8.30;3.95;;;;;;;5.05;80.21;101410.09;7401129;19;20014;-64
2022/01/17 03:06:38;;;;;;;8.10;3.55;;;;;;;5.06;78.93;101391.00;7400017;19;20024;-64
2022/01/17 03:09:08;;;;;;;8.30;3.15;;;;;;;5.08;78.12;101374.53;7400692;19;20479;-64
2022/01/17 03:11:36;;;;;;;13.02;7.38;;;;;;;5.09;77.89;101355.47;7399579;19;20037;-64
2022/01/17 03:14:05;;;;;;;13.55;5.80;;;;;;;5.08;77.66;101361.53;7400817;19;20019;-64
2022/01/17 03:16:35;;;;;;;9.95;4.18;;;;;;;5.06;77.63;101353.72;7399638;19;20037;-64
2022/01/17 03:19:04;;;;;;;6.32;3.47;;;;;;;5.08;78.45;101366.75;7401930;19;20026;-64
2022/01/17 03:21:32;;;;;;;4.75;3.22;;;;;;;5.09;79.11;101368.50;7401995;19;20014;-66
2022/01/17 03:24:00;;;;;;;9.75;2.90;;;;;;;5.06;77.86;101375.41;7401423;19;20015;-64
2022/01/17 03:26:31;;;;;;;8.43;2.63;;;;;;;5.06;78.26;101384.94;7400145;19;20014;-64
2022/01/17 03:29:01;;;;;;;6.95;2.70;;;;;;;5.06;78.58;101358.94;7400337;19;20015;-65
2022/01/17 03:31:29;;;;;;;4.00;2.10;;;;;;;5.03;77.72;101400.50;7397019;19;20007;-64
2022/01/17 03:33:58;;;;;;;3.92;2.22;;;;;;;5.05;78.15;101355.47;7399724;19;20011;-64
2022/01/17 03:36:26;;;;;;;4.57;1.90;;;;;;;5.05;77.27;101365.88;7399437;19;20046;-64
2022/01/17 03:38:55;;;;;;;8.38;1.67;;;;;;;5.06;76.71;101345.91;7399688;19;20010;-65
2022/01/17 03:41:24;;;;;;;8.40;1.73;;;;;;;5.06;76.18;101330.31;7399747;19;20364;-64
2022/01/17 03:43:55;;;;;;;4.25;1.30;;;;;;;5.04;75.45;101343.31;7399271;19;20490;-64
2022/01/17 03:46:24;;;;;;;4.20;1.55;;;;;;;5.04;74.78;101347.63;7399082;19;20025;-64
2022/01/17 03:48:52;;;;;;;4.13;1.30;;;;;;;4.97;76.02;101315.50;7399431;19;20018;-63
2022/01/17 03:51:20;;;;;;;6.43;1.00;;;;;;;5.04;73.21;101321.63;7398250;19;20018;-64
2022/01/17 03:53:49;;;;;;;7.22;1.40;;;;;;;5.05;73.80;101339.88;7399358;19;20015;-64
2022/01/17 03:56:18;;;;;;;11.52;1.40;;;;;;;5.06;72.30;101331.19;7398627;19;20018;-64
2022/01/17 03:58:47;;;;;;;7.72;1.80;;;;;;;5.08;71.88;101338.13;7399084;19;20365;-64
2022/01/17 04:01:19;;;;;;;5.05;1.33;;;;;;;5.08;71.09;101348.53;7399482;19;20007;-64
2022/01/17 04:03:48;;;;;;;12.45;1.65;;;;;;;5.10;72.42;101341.63;7399360;19;20017;-64
2022/01/17 04:06:18;;;;;;;9.35;1.58;;;;;;;5.10;71.37;101320.81;7397680;19;20490;-64
2022/01/17 04:08:46;;;;;;;6.85;1.20;;;;;;;5.11;70.44;101330.38;7398423;19;20482;-64
2022/01/17 04:11:14;;;;;;;10.73;1.25;;;;;;;5.11;71.53;101310.44;7395732;19;20024;-64
2022/01/17 04:13:42;;;;;;;9.90;2.00;;;;;;;5.09;70.61;101332.94;7398748;19;20040;-64
2022/01/17 04:16:11;;;;;;;7.43;1.50;;;;;;;5.10;70.75;101354.63;7398117;19;20070;-64
2022/01/17 04:18:43;;;;;;;4.85;1.25;;;;;;;5.09;70.86;101360.69;7398463;19;20040;-64
2022/01/17 04:21:11;;;;;;;8.30;2.20;;;;;;;5.10;71.54;101357.25;7398836;19;20022;-65
2022/01/17 04:23:39;;;;;;;5.53;1.00;;;;;;;5.10;72.11;101339.03;7398271;19;20019;-64
2022/01/17 04:26:07;;;;;;;7.35;2.10;;;;;;;5.08;71.81;101349.44;7397686;19;20036;-64
2022/01/17 04:28:36;;;;;;;7.00;1.88;;;;;;;5.03;72.63;101331.16;7397956;19;20031;-64
2022/01/17 04:31:04;;;;;;;6.00;1.48;;;;;;;5.06;72.73;101414.41;7396423;19;20014;-64
2022/01/17 04:33:32;;;;;;;10.77;1.27;;;;;;;5.05;72.89;101358.06;7398263;19;20362;-64
2022/01/17 04:36:06;;;;;;;9.02;1.63;;;;;;;5.03;72.94;101372.78;7396998;19;20083;-64
2022/01/17 04:38:34;;;;;;;;;;;;;;;5.04;73.03;101365.81;7399182;19;20014;-63
2022/01/17 04:41:05;;;;;;;7.85;1.65;;;;;;;5.02;73.53;101345.00;7397522;19;19922;-64
2022/01/17 04:43:57;;;;;;;11.23;1.92;;;;;;;4.97;74.38;101335.44;7397702;19;20348;-64
2022/01/17 04:46:25;;;;;;;10.32;1.73;;;;;;;4.98;74.81;101369.25;7396758;19;20019;-64
2022/01/17 04:48:53;;;;;;;11.07;1.42;;;;;;;4.96;74.80;101363.16;7397292;19;20099;-64
2022/01/17 04:51:24;;;;;;;7.93;1.60;;;;;;;4.96;74.79;101357.09;7396586;19;20040;-64
2022/01/17 04:54:12;;;;;;;10.10;1.52;;;;;;;4.94;74.80;101346.69;7397442;19;20014;-64
2022/01/17 04:56:41;;;;;;;14.35;2.22;;;;;;;4.93;75.04;101355.31;7396617;19;20022;-64
2022/01/17 04:59:09;;;;;;;8.43;1.00;;;;;;;4.89;74.89;101385.63;7396937;19;20102;-64
2022/01/17 05:01:37;;;;;;;7.57;1.70;;;;;;;4.89;74.97;101359.63;7397242;19;20011;-64
2022/01/17 05:04:05;;;;;;;9.88;2.08;;;;;;;4.87;75.35;101404.66;7396724;19;20031;-64
2022/01/17 05:06:36;;;;;;;6.40;1.23;;;;;;;4.87;75.63;101365.66;7395633;19;20018;-63
2022/01/17 05:09:05;;;;;;;8.18;1.55;;;;;;;4.80;75.61;101356.03;7396587;19;20038;-64
2022/01/17 05:11:41;;;;;;;6.95;1.27;;;;;;;4.82;75.54;101359.53;7395748;19;20015;-64
2022/01/17 05:14:10;;;;;;;7.72;1.30;;;;;;;4.82;75.90;101341.31;7396239;19;20018;-64
2022/01/17 05:16:43;;;;;;;6.63;1.02;;;;;;;4.80;76.20;101349.13;7395565;19;20014;-64
2022/01/17 05:21:55;;;;;;;8.05;1.58;;;;;;;4.77;76.19;101320.47;7395700;19;20019;-64
2022/01/17 05:24:23;;;;;;;7.03;1.40;;;;;;;4.77;76.64;101330.00;7396340;19;20035;-64
2022/01/17 05:26:51;;;;;;;8.35;2.08;;;;;;;4.76;76.86;101349.91;7394831;19;20025;-64
2022/01/17 05:29:21;;;;;;;6.57;1.13;;;;;;;4.72;77.31;101393.19;7395773;19;20015;-63
2022/01/17 05:31:50;;;;;;;7.80;1.40;;;;;;;4.72;77.65;101324.75;7393967;19;20006;-64
2022/01/17 05:34:18;;;;;;;13.57;1.48;;;;;;;4.69;77.82;101341.19;7393242;19;20023;-64
2022/01/17 05:36:46;;;;;;;7.55;1.52;;;;;;;4.69;78.62;101325.56;7393971;19;20022;-70
2022/01/17 05:39:17;;;;;;;8.25;1.13;;;;;;;4.66;78.26;101340.25;7395014;19;20036;-63
2022/01/17 05:41:45;;;;;;;8.73;1.20;;;;;;;4.66;78.61;101329.88;7395641;19;20018;-64
2022/01/17 05:44:13;;;;;;;7.70;1.20;;;;;;;4.64;78.59;101302.97;7394931;19;20018;-65
2022/01/17 05:46:41;;;;;;;10.18;1.30;;;;;;;4.66;78.96;101296.06;7394503;19;20039;-66
2022/01/17 05:49:09;;;;;;;8.27;1.27;;;;;;;4.65;78.65;101287.41;7395152;19;20031;-66
2022/01/17 05:51:38;;;;;;;6.32;1.10;;;;;;;4.66;78.70;101289.16;7394221;19;20032;-66
2022/01/17 05:54:06;;;;;;;12.52;1.45;;;;;;;4.64;78.75;101274.38;7394983;19;20018;-65
2022/01/17 05:56:37;;;;;;;7.85;1.42;;;;;;;4.66;78.95;101296.97;7394062;19;20384;-64
2022/01/17 05:59:05;;;;;;;7.70;1.25;;;;;;;4.67;79.02;101300.44;7394987;19;20015;-65
2022/01/17 06:01:33;;;;;;;7.50;1.30;;;;;;;4.66;78.79;101330.75;7393809;19;20014;-65
2022/01/17 06:04:01;;;;;;;6.95;1.77;;;;;;;4.69;79.20;101293.53;7394780;19;20023;-66
2022/01/17 06:06:29;;;;;;;10.95;1.80;;;;;;;4.69;79.16;101278.78;7393174;19;20039;-67
2022/01/17 06:08:57;;;;;;;11.05;1.55;;;;;;;4.68;79.03;101284.84;7392630;19;20032;-66
2022/01/17 06:11:25;;;;;;;6.38;1.17;;;;;;;4.69;79.18;101293.53;7394824;19;20023;-65
2022/01/17 06:13:57;;;;;;;7.35;1.40;;;;;;;4.70;79.05;101256.25;7394270;19;20031;-65
2022/01/17 06:16:26;;;;;;;9.18;1.63;;;;;;;4.68;79.22;101245.00;7393432;19;20019;-65
2022/01/17 06:18:54;;;;;;;9.25;1.55;;;;;;;4.73;79.25;101235.50;7393854;19;20018;-66
2022/01/17 06:21:22;;;;;;;11.80;2.00;;;;;;;4.73;79.01;101283.16;7393366;19;20019;-66
2022/01/17 06:23:58;;;;;;;8.90;1.08;;;;;;;4.76;78.99;101304.84;7392834;19;20039;-65
2022/01/17 06:26:26;;;;;;;6.18;1.00;;;;;;;4.77;79.17;101333.47;7393222;19;20041;-65
2022/01/17 06:28:57;;;;;;;12.43;1.63;;;;;;;4.79;79.54;101300.56;7394000;19;20014;-65
2022/01/17 06:31:25;;;;;;;9.77;1.50;;;;;;;4.79;80.05;101313.56;7391728;19;20496;-64
2022/01/17 06:33:53;;;;;;;6.25;1.60;;;;;;;4.76;80.39;101331.72;7393587;19;20020;-66
2022/01/17 06:36:22;;;;;;;6.47;1.52;;;;;;;4.73;80.60;101321.28;7400098;19;20031;-64
2022/01/17 06:38:50;;;;;;;7.78;1.85;;;;;;;4.72;81.13;101304.81;7401256;19;20035;-65
2022/01/17 06:41:18;;;;;;;10.10;1.15;;;;;;;4.70;80.92;101288.34;7400756;19;20126;-65
2022/01/17 06:43:47;;;;;;;6.03;1.60;;;;;;;4.69;81.14;101276.19;7400943;19;20018;-64
2022/01/17 06:46:18;;;;;;;7.57;1.48;;;;;;;4.65;80.89;101260.53;7401744;19;20015;-64
2022/01/17 06:48:46;;;;;;;7.72;1.38;;;;;;;4.69;81.12;101263.19;7403492;19;20554;-64
2022/01/17 06:51:15;;;;;;;7.05;1.67;;;;;;;4.71;81.37;101292.69;7402729;19;20090;-64
2022/01/17 06:53:44;;;;;;;7.43;1.00;;;;;;;4.71;81.35;101292.69;7397958;19;20027;-65
2022/01/17 06:56:13;;;;;;;6.40;1.35;;;;;;;4.70;81.60;101285.75;7399504;19;20039;-64
2022/01/17 06:58:42;;;;;;;6.47;1.15;;;;;;;4.71;81.71;101282.28;7400224;19;20479;-64
2022/01/17 07:01:11;;;;;;;8.55;1.30;;;;;;;4.71;82.37;101291.81;7400142;19;20015;-64
2022/01/17 07:03:42;;;;;;;4.82;1.38;;;;;;;4.72;82.35;101309.16;7399986;19;20015;-64
2022/01/17 07:06:10;;;;;;;4.68;0.90;;;;;;;4.69;82.66;101297.00;7398745;19;20330;-64
2022/01/17 07:09:00;;;;;;;8.18;1.20;;;;;;;4.68;82.80;101303.03;7400429;19;20011;-64
2022/01/17 07:11:29;;;;;;;5.07;1.05;;;;;;;4.65;82.92;101305.63;7400289;19;20021;-64
2022/01/17 07:13:57;;;;;;;7.45;1.23;;;;;;;4.65;82.98;101321.22;7400892;19;20014;-64
2022/01/17 07:16:25;;;;;;;6.80;1.42;;;;;;;4.66;83.04;101315.16;7399131;19;20035;-64
2022/01/17 07:18:56;;;;;;;7.30;1.45;;;;;;;4.67;83.01;101293.47;7399849;19;20018;-64
2022/01/17 07:21:24;;;;;;;6.53;1.27;;;;;;;4.69;83.09;101309.13;7400374;19;20018;-64
2022/01/17 07:23:52;;;;;;;8.25;1.83;;;;;;;4.71;82.91;101323.88;7401000;19;20018;-65
2022/01/17 07:26:20;;;;;;;5.82;1.40;;;;;;;4.71;82.74;101261.50;7399435;19;20022;-65
2022/01/17 07:28:49;;;;;;;9.48;1.23;;;;;;;4.73;82.49;101264.09;7399135;19;20386;-65
2022/01/17 07:31:29;;;;;;;5.90;1.38;;;;;;;4.75;82.45;101272.78;7397383;19;20459;-64
2022/01/17 07:34:01;;;;;;;8.30;1.58;;;;;;;4.78;82.38;101256.34;7398610;19;20035;-65
2022/01/17 07:36:29;;;;;;;8.13;1.52;;;;;;;4.80;82.32;101265.03;7397933;19;20022;-65
2022/01/17 07:38:57;;;;;;;8.07;1.60;;;;;;;4.81;82.53;101246.84;7399193;19;20014;-65
2022/01/17 07:41:26;;;;;;;8.68;1.65;;;;;;;4.82;82.17;101237.34;7399157;19;20035;-64
2022/01/17 07:43:54;;;;;;;9.20;1.45;;;;;;;4.84;82.44;101253.78;7398806;19;20542;-65
2022/01/17 07:46:32;;;;;;;8.80;1.30;;;;;;;4.80;82.35;101265.94;7395656;19;20022;-65
2022/01/17 07:49:12;;;;;;;8.50;1.50;;;;;;;4.86;82.29;101278.09;7399511;19;20404;-65
2022/01/17 07:51:43;;;;;;;6.78;1.73;;;;;;;4.86;81.82;101257.28;7398953;19;20383;-65
2022/01/17 07:54:14;;;;;;;4.88;1.17;;;;;;;4.90;82.37;101298.06;7399054;19;20015;-62
2022/01/17 07:56:43;;;;;;;7.57;1.40;;;;;;;4.92;81.49;101270.38;7397800;19;20040;-65
2022/01/17 07:59:12;;;;;;;11.05;1.52;;;;;;;4.95;81.23;101270.38;7399620;19;20018;-63
2022/01/17 08:01:41;;;;;;;5.65;1.65;;;;;;;4.98;81.43;101282.53;7398690;19;20015;-64
2022/01/17 08:04:13;;;;;;;6.63;1.95;;;;;;;5.00;80.99;101268.69;7398709;19;20023;-63
2022/01/17 08:06:42;;;;;;;11.15;1.63;;;;;;;5.01;80.68;101288.66;7398079;19;20023;-65
2022/01/17 08:09:14;;;;;;;9.15;1.42;;;;;;;5.04;80.73;101277.41;7398157;19;20475;-65
2022/01/17 08:11:42;;;;;;;6.15;1.23;;;;;;;5.07;80.72;101264.44;7398708;19;20015;-65
2022/01/17 08:14:10;;;;;;;12.15;2.03;;;;;;;5.09;80.63;101273.13;7396066;19;20022;-65
2022/01/17 08:16:38;;;;;;;9.50;2.00;;;;;;;5.12;80.73;101251.47;7397116;19;20022;-66
2022/01/17 08:19:07;;;;;;;8.18;1.50;;;;;;;5.12;79.93;101261.88;7398003;19;20028;-66
2022/01/17 08:21:38;;;;;;;8.77;1.45;;;;;;;5.15;79.93;101267.13;7398020;19;20018;-65
2022/01/17 08:24:06;;;;;;;9.68;1.67;;;;;;;5.18;79.70;101256.72;7398269;19;20018;-64
2022/01/17 08:26:42;;;;;;;9.23;1.75;;;;;;;5.21;79.50;101229.00;7396797;19;20019;-65
2022/01/17 08:29:10;;;;;;;9.02;2.13;;;;;;;5.25;79.46;101200.44;7397859;19;20032;-64
2022/01/17 08:31:39;;;;;;;9.63;1.92;;;;;;;5.27;79.28;101189.19;7395612;19;20011;-64
2022/01/17 08:34:07;;;;;;;6.32;1.67;;;;;;;5.31;78.88;101216.09;7395010;19;20017;-65
2022/01/17 08:36:38;;;;;;;5.78;1.20;;;;;;;5.33;78.87;101198.75;7397238;19;20022;-65
2022/01/17 08:39:06;;;;;;;6.32;1.83;;;;;;;5.35;78.91;101216.09;7397819;19;20019;-66
2022/01/17 08:41:35;;;;;;;6.70;1.35;;;;;;;5.37;78.79;101209.19;7397371;19;20034;-64
2022/01/17 08:44:03;;;;;;;3.20;1.58;;;;;;;5.41;78.94;101209.19;7397285;19;20045;-65
2022/01/17 08:46:31;;;;;;;6.75;1.35;;;;;;;5.44;78.58;101219.66;7396911;19;20035;-64
2022/01/17 08:48:59;;;;;;;10.43;1.63;;;;;;;5.49;78.65;101217.94;7396119;19;20479;-65
2022/01/17 08:51:27;;;;;;;7.47;1.33;;;;;;;5.52;78.38;101221.44;7396322;19;20018;-64
2022/01/17 08:53:58;;;;;;;6.57;1.50;;;;;;;5.54;78.37;101217.09;7394889;19;20018;-65
2022/01/17 08:56:29;;;;;;;7.45;1.35;;;;;;;5.58;78.55;101223.19;7396174;19;20026;-65
2022/01/17 08:58:58;;;;;;;6.20;1.40;;;;;;;5.59;78.63;101226.69;7396627;19;20025;-66
2022/01/17 09:01:26;;;;;;;6.95;1.27;;;;;;;5.60;78.39;101212.78;7396308;19;20497;-66
2022/01/17 09:03:54;;;;;;;7.68;1.33;;;;;;;5.61;78.76;101220.63;7396415;19;20027;-66
2022/01/17 09:06:23;;;;;;;8.65;1.20;;;;;;;5.64;79.27;101212.84;7396413;19;20027;-66
2022/01/17 09:08:52;;;;;;;6.32;1.00;;;;;;;5.63;79.11;101234.50;7396468;19;20018;-67
2022/01/17 09:11:23;;;;;;;3.92;0.85;;;;;;;5.62;78.95;101211.94;7396326;19;20010;-66
2022/01/17 09:13:51;;;;;;;5.63;1.30;;;;;;;5.65;78.88;101216.28;7395728;19;20139;-67
2022/01/17 09:16:20;;;;;;;5.60;1.30;;;;;;;5.64;80.03;101188.53;7394921;19;20487;-66
2022/01/17 09:18:48;;;;;;;8.00;1.27;;;;;;;5.64;80.54;101201.56;7396302;19;20017;-67
2022/01/17 09:21:16;;;;;;;11.48;1.95;;;;;;;5.63;80.43;101207.63;7395735;19;20386;-66
2022/01/17 09:23:45;;;;;;;5.80;1.30;;;;;;;5.58;80.00;101210.19;7396019;19;20019;-67
2022/01/17 09:26:13;;;;;;;4.50;1.40;;;;;;;5.61;80.13;101227.56;7395399;19;20023;-65
2022/01/17 09:28:45;;;;;;;9.27;1.88;;;;;;;5.61;80.99;101205.03;7395828;19;20018;-66
2022/01/17 09:31:13;;;;;;;6.32;1.42;;;;;;;5.62;81.63;101230.16;7395836;19;20010;-66
2022/01/17 09:33:41;;;;;;;7.93;1.60;;;;;;;5.58;82.23;101204.13;7394947;19;20018;-66
2022/01/17 09:36:09;;;;;;;4.97;0.93;;;;;;;5.59;83.42;101219.75;7395046;19;20022;-66
2022/01/17 09:38:37;;;;;;;2.47;1.20;;;;;;;5.55;85.57;101220.59;7395999;19;20027;-66
2022/01/17 09:41:06;;;;;;;4.22;1.00;;;;;;;5.48;86.51;101244.81;7394974;19;20496;-65
2022/01/17 09:43:35;;;;;;;5.18;1.02;;;;;;;5.42;86.49;101243.06;7395111;19;20483;-65
2022/01/17 09:46:06;;;;;;;6.53;1.30;;;;;;;5.30;87.49;101266.38;7395153;19;20035;-66
2022/01/17 09:48:38;;;;;;;4.15;1.08;;;;;;;5.29;87.94;101239.47;7395807;19;20015;-66
2022/01/17 09:51:17;;;;;;;4.38;0.90;;;;;;;5.24;88.42;101207.34;7395652;19;20022;-66
2022/01/17 09:53:46;;;;;;;7.15;1.52;;;;;;;5.18;89.31;101233.31;7394462;19;20015;-66
2022/01/17 09:56:16;;;;;;;3.13;1.25;;;;;;;5.14;90.21;101258.41;7394536;19;20036;-66
2022/01/17 09:58:45;;;;;;;7.80;1.50;;;;;;;5.11;90.17;101245.41;7394733;19;20417;-66
2022/01/17 10:01:16;;;;;;;8.60;1.38;;;;;;;5.08;91.45;101250.59;7394399;19;20487;-66
2022/01/17 10:03:44;;;;;;;4.20;1.20;;;;;;;5.05;91.06;101235.81;7394286;19;20385;-66
2022/01/17 10:06:12;;;;;;;6.55;1.15;;;;;;;5.02;92.25;101243.59;7394123;19;20027;-66
2022/01/17 10:08:40;;;;;;;6.50;2.85;;;;;;;5.03;92.03;101262.66;7395067;19;20023;-66
2022/01/17 10:11:14;;;;;;;3.53;1.45;;;;;;;5.05;91.31;101274.84;7402506;19;20031;-67
2022/01/17 10:13:45;;;;;;;4.38;1.80;;;;;;;5.10;91.66;101250.59;7400192;19;20479;-66
2022/01/17 10:16:18;;;;;;;2.78;1.00;;;;;;;5.14;91.40;101266.22;7400942;19;20479;-66
2022/01/17 10:18:49;;;;;;;3.70;1.20;;;;;;;5.21;90.28;101308.78;7401725;19;20352;-66
2022/01/17 10:21:31;;;;;;;4.00;1.33;;;;;;;5.25;90.71;101247.25;7399160;19;20427;-66
2022/01/17 10:24:15;;;;;;;5.93;1.70;;;;;;;5.25;91.46;101274.13;7402186;19;20015;-66
2022/01/17 10:29:52;;;;;;;2.92;1.10;;;;;;;5.23;92.04;101242.03;7398744;19;20017;-66
2022/01/17 10:35:17;;;;;;;2.75;1.00;;;;;;;5.24;91.87;101269.78;7401482;19;20088;-65
2022/01/17 10:37:58;;;;;;;4.22;1.13;;;;;;;5.25;92.62;101271.53;7399602;19;20021;-66
2022/01/17 10:40:27;;;;;;;4.43;1.08;;;;;;;5.27;92.03;101288.03;7401924;19;20015;-67
2022/01/17 10:42:56;;;;;;;4.85;1.70;;;;;;;5.28;92.54;101286.28;7400826;19;20019;-66
2022/01/17 10:45:28;;;;;;;5.40;1.27;;;;;;;5.25;93.50;101294.09;7400915;19;20014;-66
2022/01/17 10:48:01;;;;;;;6.15;1.30;;;;;;;5.20;93.98;101322.66;7398559;19;20139;-66
2022/01/17 10:50:32;;;;;;;4.80;1.30;;;;;;;5.17;94.72;101354.72;7401628;19;20014;-65
2022/01/17 10:53:02;;;;;;;2.25;0.75;;;;;;;5.12;94.97;101361.59;7400305;19;20539;-66
2022/01/17 10:55:32;;;;;;;3.47;1.30;;;;;;;5.06;95.61;101418.75;7400699;19;20451;-65
2022/01/17 10:58:04;;;;;;;4.80;1.38;;;;;;;4.97;97.30;101450.72;7398426;19;20018;-66
2022/01/17 11:00:35;;;;;;;3.10;0.90;;;;;;;4.64;94.17;101436.41;7401305;19;20018;-66
2022/01/17 11:03:08;;;;;;;2.25;0.90;;;;;;;4.23;93.02;101470.44;7401322;19;20022;-66
2022/01/17 11:05:38;;;;;;;1.88;0.60;;;;;;;3.74;93.58;101491.22;7400809;19;20019;-66
2022/01/17 11:08:06;;;;;;;4.85;0.93;;;;;;;3.48;94.87;101467.41;7400596;19;20018;-67
2022/01/17 11:10:39;;;;;;;4.93;0.80;;;;;;;3.24;95.48;101453.13;7400732;19;20018;-66
2022/01/17 11:13:11;;;;;;;6.55;1.00;;;;;;;3.08;96.11;101446.75;7400654;19;20015;-65
2022/01/17 11:15:43;;;;;;;8.07;1.17;;;;;;;3.00;96.96;101450.91;7400723;19;20035;-67
2022/01/17 11:18:20;;;;;;;6.63;1.27;;;;;;;2.89;96.96;101474.88;7404361;19;20015;-67
2022/01/17 11:20:49;;;;;;;12.07;1.58;;;;;;;2.90;97.47;101475.75;7406851;19;20014;-70
2022/01/17 11:23:18;;;;;;;10.07;2.15;;;;;;;2.89;98.26;101476.59;7404689;19;20020;-68
2022/01/17 11:25:52;;;;;;;8.50;2.30;;;;;;;2.90;98.60;101486.97;7399720;19;20032;-69
2022/01/17 11:28:22;;;;;;;12.82;2.88;;;;;;;2.93;98.82;101483.59;7400130;19;20023;-70
2022/01/17 11:30:51;;;;;;;12.63;2.42;;;;;;;2.95;99.17;101476.72;7400282;19;20027;-70
2022/01/17 11:33:22;;;;;;;13.13;2.72;;;;;;;2.99;99.39;101486.31;7400776;19;20043;-72
2022/01/17 11:35:53;;;;;;;14.07;2.35;;;;;;;2.97;99.40;101484.53;7399471;19;20018;-68
2022/01/17 11:38:26;;;;;;;13.30;2.35;;;;;;;3.09;99.98;101492.56;7399565;19;20015;-71
2022/01/17 11:40:55;;;;;;;12.15;2.20;;;;;;;3.17;99.73;101474.56;7397212;19;20084;-68
2022/01/17 11:43:32;;;;;;;12.23;1.80;;;;;;;3.22;100.00;101468.66;7399573;19;20015;-68
2022/01/17 11:46:03;;;;;;;12.10;2.50;;;;;;;3.29;99.31;101464.47;7399181;19;20074;-67
2022/01/17 11:48:34;;;;;;;14.68;2.88;;;;;;;3.34;99.57;101468.00;7399071;19;20456;-68
2022/01/17 11:51:14;;;;;;;10.77;2.00;;;;;;;3.39;99.29;101465.53;7399598;19;20014;-70
2022/01/17 11:53:45;;;;;;;11.20;2.22;;;;;;;3.42;99.15;101471.66;7398513;19;20022;-68
2022/01/17 11:56:18;;;;;;;16.52;2.22;;;;;;;3.44;99.40;101466.47;7397805;19;20487;-67